createdAt,value
2019-03-12T00:00:08.845Z,95.20
2019-03-12T00:02:36.421Z,95.20
2019-03-12T00:05:04.295Z,95.30
2019-03-12T00:07:31.830Z,95.50
2019-03-12T00:09:59.360Z,95.70
2019-03-12T00:12:29.350Z,95.50
2019-03-12T00:14:56.872Z,95.70
2019-03-12T00:17:24.413Z,95.70
2019-03-12T00:19:51.966Z,96.10
2019-03-12T00:22:19.497Z,95.90
2019-03-12T00:24:47.084Z,96.10
2019-03-12T00:27:15.146Z,96.70
2019-03-12T00:29:42.679Z,97.30
2019-03-12T00:32:10.227Z,97.40
2019-03-12T00:34:37.789Z,97.50
2019-03-12T00:37:05.347Z,97.60
2019-03-12T00:39:32.894Z,97.60
2019-03-12T00:42:00.428Z,97.50
2019-03-12T00:44:27.989Z,97.70
2019-03-12T00:46:55.492Z,97.70
2019-03-12T00:49:23.072Z,97.60
2019-03-12T00:51:50.586Z,97.30
2019-03-12T00:54:18.163Z,97.20
2019-03-12T00:56:45.706Z,96.80
2019-03-12T00:59:13.497Z,96.70
2019-03-12T01:01:41.059Z,96.90
2019-03-12T01:04:08.578Z,96.80
2019-03-12T01:06:36.204Z,96.30
2019-03-12T01:09:05.905Z,96.60
2019-03-12T01:11:33.540Z,96.40
2019-03-12T01:14:01.098Z,96.40
2019-03-12T01:16:28.613Z,96.20
2019-03-12T01:18:56.142Z,96.30
2019-03-12T01:21:23.992Z,96.20
2019-03-12T01:23:51.523Z,96.20
2019-03-12T01:26:19.028Z,96.10
2019-03-12T01:28:46.614Z,96.10
2019-03-12T01:31:14.134Z,96.20
2019-03-12T01:33:41.629Z,96.10
2019-03-12T01:36:09.217Z,95.80
2019-03-12T01:38:36.820Z,95.70
2019-03-12T01:41:04.665Z,95.60
2019-03-12T01:43:32.173Z,95.50
2019-03-12T01:45:59.677Z,95.60
2019-03-12T01:48:29.007Z,95.70
2019-03-12T01:50:56.536Z,95.30
2019-03-12T01:53:24.065Z,95.30
2019-03-12T01:55:51.664Z,95.30
2019-03-12T01:58:19.429Z,95.30
2019-03-12T02:00:46.980Z,95.20
2019-03-12T02:03:14.634Z,95.30
2019-03-12T02:05:42.508Z,95.20
2019-03-12T02:08:10.128Z,95.50
2019-03-12T02:10:37.687Z,95.20
2019-03-12T02:13:05.270Z,95.20
2019-03-12T02:15:33.061Z,95.20
2019-03-12T02:18:00.616Z,95.20
2019-03-12T02:20:28.161Z,94.90
2019-03-12T02:22:56.769Z,94.90
2019-03-12T02:25:25.756Z,94.80
2019-03-12T02:27:53.303Z,95.00
2019-03-12T02:30:21.348Z,95.00
2019-03-12T02:32:48.887Z,94.90
2019-03-12T02:35:16.480Z,94.80
2019-03-12T02:37:44.072Z,94.80
2019-03-12T02:40:12.063Z,94.90
2019-03-12T02:42:39.614Z,94.80
2019-03-12T02:45:07.320Z,94.50
2019-03-12T02:47:35.199Z,94.80
2019-03-12T02:50:02.776Z,94.60
2019-03-12T02:52:30.320Z,94.80
2019-03-12T02:54:57.845Z,94.70
2019-03-12T02:57:25.773Z,94.50
2019-03-12T02:59:53.564Z,94.60
2019-03-12T03:02:21.152Z,94.60
2019-03-12T03:04:49.348Z,94.40
2019-03-12T03:07:35.320Z,94.40
2019-03-12T03:10:04.031Z,94.30
2019-03-12T03:12:31.601Z,94.20
2019-03-12T03:15:07.723Z,94.00
2019-03-12T03:17:35.323Z,94.10
2019-03-12T03:20:03.460Z,94.00
2019-03-12T03:22:31.269Z,94.00
2019-03-12T03:24:58.842Z,93.90
2019-03-12T03:27:29.350Z,93.80
2019-03-12T03:29:55.744Z,93.70
2019-03-12T03:32:23.346Z,93.70
2019-03-12T03:34:50.894Z,93.70
2019-03-12T03:37:18.487Z,93.80
2019-03-12T03:39:46.025Z,93.80
2019-03-12T03:42:13.914Z,93.80
2019-03-12T03:44:42.783Z,93.90
2019-03-12T03:47:10.620Z,93.80
2019-03-12T03:49:38.164Z,93.90
2019-03-12T03:52:05.706Z,94.00
2019-03-12T03:54:33.633Z,94.10
2019-03-12T03:57:04.476Z,94.10
2019-03-12T03:59:32.356Z,94.10
2019-03-12T04:02:01.107Z,94.30
2019-03-12T04:04:30.074Z,94.20
2019-03-12T04:06:57.634Z,94.10
2019-03-12T04:09:25.212Z,94.40
2019-03-12T04:11:52.714Z,94.10
2019-03-12T04:14:20.285Z,94.40
2019-03-12T04:16:48.142Z,94.40
2019-03-12T04:19:15.892Z,94.50
2019-03-12T04:21:43.446Z,94.50
2019-03-12T04:24:12.343Z,94.60
2019-03-12T04:26:40.258Z,94.70
2019-03-12T04:29:07.795Z,94.90
2019-03-12T04:31:35.314Z,94.90
2019-03-12T04:34:26.286Z,95.10
2019-03-12T04:36:53.808Z,95.20
2019-03-12T04:39:21.669Z,95.30
2019-03-12T04:41:49.208Z,95.40
2019-03-12T04:44:16.747Z,95.20
2019-03-12T04:46:44.291Z,95.60
2019-03-12T04:49:11.828Z,95.40
2019-03-12T04:51:39.669Z,96.10
2019-03-12T04:54:07.125Z,96.00
2019-03-12T04:56:34.628Z,96.10
2019-03-12T04:59:02.456Z,95.90
2019-03-12T05:01:29.998Z,96.00
2019-03-12T05:03:57.503Z,96.20
2019-03-12T05:06:25.315Z,96.30
2019-03-12T05:08:52.817Z,96.60
2019-03-12T05:11:20.333Z,96.90
2019-03-12T05:14:26.900Z,96.80
2019-03-12T05:17:27.077Z,96.90
2019-03-12T05:19:54.627Z,97.00
2019-03-12T05:22:23.530Z,97.10
2019-03-12T05:24:51.144Z,97.40
2019-03-12T05:27:18.675Z,97.70
2019-03-12T05:29:46.211Z,98.10
2019-03-12T05:32:13.900Z,97.80
2019-03-12T05:34:41.376Z,97.90
2019-03-12T05:37:08.873Z,98.10
2019-03-12T05:39:36.433Z,97.70
2019-03-12T05:42:04.202Z,97.80
2019-03-12T05:44:31.711Z,98.10
2019-03-12T05:46:59.241Z,98.30
2019-03-12T05:49:26.776Z,98.50
2019-03-12T05:51:54.630Z,98.30
2019-03-12T05:54:22.141Z,98.50
2019-03-12T05:56:49.689Z,98.40
2019-03-12T05:59:17.212Z,98.60
2019-03-12T06:01:46.747Z,98.60
2019-03-12T06:04:14.000Z,98.70
2019-03-12T06:06:41.494Z,98.70
2019-03-12T06:09:08.991Z,98.70
2019-03-12T06:11:36.483Z,98.50
2019-03-12T06:14:04.235Z,98.70
2019-03-12T06:16:37.644Z,98.80
2019-03-12T06:19:05.128Z,98.90
2019-03-12T06:21:32.913Z,99.00
2019-03-12T06:24:00.467Z,99.00
2019-03-12T06:26:28.011Z,99.10
2019-03-12T06:28:55.463Z,99.10
2019-03-12T06:31:50.608Z,99.10
2019-03-12T06:34:33.212Z,98.80
2019-03-12T06:37:23.200Z,98.70
2019-03-12T06:40:16.477Z,98.80
2019-03-12T06:43:06.328Z,98.90
2019-03-12T06:45:47.357Z,98.90
2019-03-12T06:48:32.894Z,98.90
2019-03-12T06:51:22.833Z,98.70
2019-03-12T06:54:02.696Z,98.70
2019-03-12T06:56:50.089Z,98.60
2019-03-12T06:59:40.130Z,98.40
2019-03-12T07:02:25.241Z,98.30
2019-03-12T07:05:02.549Z,98.20
2019-03-12T07:07:48.115Z,98.30
2019-03-12T07:10:41.323Z,98.10
2019-03-12T07:13:34.317Z,97.70
2019-03-12T07:16:06.275Z,97.60
2019-03-12T07:19:02.305Z,97.60
2019-03-12T07:21:46.146Z,97.40
2019-03-12T07:24:51.517Z,97.50
2019-03-12T07:27:41.541Z,97.10
2019-03-12T07:30:27.307Z,96.90
2019-03-12T07:33:06.937Z,97.00
2019-03-12T07:36:05.752Z,96.90
2019-03-12T07:38:39.006Z,96.40
2019-03-12T07:41:30.409Z,96.40
2019-03-12T07:44:02.500Z,96.30
2019-03-12T07:46:43.198Z,96.20
2019-03-12T07:49:45.407Z,96.00
2019-03-12T07:52:19.215Z,96.20
2019-03-12T07:54:56.715Z,96.20
2019-03-12T07:57:46.854Z,95.80
2019-03-12T08:00:27.062Z,95.80
2019-03-12T08:03:19.895Z,95.60
2019-03-12T08:06:05.558Z,95.40
2019-03-12T08:08:51.344Z,95.20
2019-03-12T08:11:38.324Z,95.10
2019-03-12T08:14:16.583Z,94.70
2019-03-12T08:17:02.056Z,94.60
2019-03-12T08:19:51.775Z,94.40
2019-03-12T08:22:44.978Z,94.20
2019-03-12T08:25:24.270Z,94.00
2019-03-12T08:28:14.405Z,93.90
2019-03-12T08:31:00.437Z,93.50
2019-03-12T08:33:56.209Z,93.40
2019-03-12T08:36:48.827Z,93.10
2019-03-12T08:39:38.841Z,93.00
2019-03-12T08:42:31.005Z,92.40
2019-03-12T08:45:17.073Z,92.00
2019-03-12T08:48:00.512Z,91.60
2019-03-12T08:50:50.181Z,91.30
2019-03-12T08:53:39.642Z,91.30
2019-03-12T08:56:22.198Z,91.10
2019-03-12T08:58:58.404Z,90.60
2019-03-12T09:02:02.522Z,90.20
2019-03-12T09:04:46.035Z,88.70
2019-03-12T09:07:31.438Z,89.40
2019-03-12T09:10:17.272Z,90.00
2019-03-12T09:13:16.171Z,88.60
2019-03-12T09:16:03.155Z,87.10
2019-03-12T09:18:52.854Z,87.80
2019-03-12T09:21:32.975Z,85.90
2019-03-12T09:24:19.695Z,84.60
2019-03-12T09:27:05.539Z,85.70
2019-03-12T09:29:52.496Z,85.00
2019-03-12T09:32:38.239Z,85.30
2019-03-12T09:35:17.740Z,84.50
2019-03-12T09:38:09.803Z,85.20
2019-03-12T09:41:08.830Z,84.80
2019-03-12T09:43:55.862Z,83.90
2019-03-12T09:46:29.713Z,81.70
2019-03-12T09:49:15.526Z,82.10
2019-03-12T09:52:11.611Z,81.10
2019-03-12T09:54:57.162Z,81.40
2019-03-12T09:57:56.157Z,80.40
2019-03-12T10:00:42.144Z,80.20
2019-03-12T10:03:32.056Z,78.10
2019-03-12T10:06:18.993Z,79.00
2019-03-12T10:08:59.786Z,77.80
2019-03-12T10:11:36.280Z,76.30
2019-03-12T10:14:13.495Z,74.80
2019-03-12T10:16:59.140Z,74.70
2019-03-12T10:19:44.923Z,72.60
2019-03-12T10:22:34.499Z,72.10
2019-03-12T10:25:33.577Z,71.50
2019-03-12T10:28:32.860Z,72.20
2019-03-12T10:31:38.004Z,70.30
2019-03-12T10:34:33.925Z,70.00
2019-03-12T10:37:19.596Z,68.10
2019-03-12T10:40:10.592Z,66.80
2019-03-12T10:42:49.727Z,68.20
2019-03-12T10:45:24.092Z,69.10
2019-03-12T10:47:51.822Z,69.20
2019-03-12T10:50:19.504Z,68.90
2019-03-12T10:52:46.963Z,70.20
2019-03-12T10:55:14.432Z,70.50
2019-03-12T10:57:41.943Z,69.70
2019-03-12T11:00:10.496Z,69.30
2019-03-12T11:02:40.575Z,67.30
2019-03-12T11:05:07.254Z,64.40
2019-03-12T11:07:34.709Z,62.70
2019-03-12T11:10:02.243Z,62.10
2019-03-12T11:12:29.723Z,61.10
2019-03-12T11:14:57.238Z,59.90
2019-03-12T11:17:24.672Z,60.70
2019-03-12T11:19:52.131Z,64.00
2019-03-12T11:22:19.638Z,60.70
2019-03-12T11:24:47.104Z,60.00
2019-03-12T11:27:14.904Z,59.10
2019-03-12T11:29:42.658Z,61.00
2019-03-12T11:32:10.154Z,61.60
2019-03-12T11:34:38.709Z,60.90
2019-03-12T11:37:13.238Z,59.90
2019-03-12T11:39:40.938Z,59.80
2019-03-12T11:42:08.513Z,59.40
2019-03-12T11:44:36.016Z,59.00
2019-03-12T11:47:03.527Z,57.00
2019-03-12T11:49:31.083Z,57.30
2019-03-12T11:51:58.550Z,55.70
2019-03-12T11:54:26.072Z,55.70
2019-03-12T11:56:53.941Z,56.60
2019-03-12T11:59:21.429Z,57.90
2019-03-12T12:01:49.040Z,59.60
2019-03-12T12:04:16.488Z,60.10
2019-03-12T12:06:44.030Z,59.50
2019-03-12T12:09:11.560Z,59.60
2019-03-12T12:11:39.042Z,59.30
2019-03-12T12:14:06.848Z,58.70
2019-03-12T12:16:34.386Z,57.20
2019-03-12T12:19:01.842Z,58.10
2019-03-12T12:21:29.356Z,58.60
2019-03-12T12:23:56.980Z,58.50
2019-03-12T12:26:24.913Z,55.80
2019-03-12T12:28:52.407Z,53.00
2019-03-12T12:31:20.190Z,49.80
2019-03-12T12:33:47.701Z,49.60
2019-03-12T12:36:16.149Z,47.40
2019-03-12T12:38:43.658Z,47.30
2019-03-12T12:41:11.463Z,46.00
2019-03-12T12:43:39.424Z,46.80
2019-03-12T12:46:06.915Z,45.70
2019-03-12T12:48:34.418Z,48.00
2019-03-12T12:51:03.825Z,49.00
2019-03-12T12:53:31.548Z,46.50
2019-03-12T12:55:59.388Z,46.10
2019-03-12T12:58:32.139Z,43.60
2019-03-12T13:01:00.255Z,43.60
2019-03-12T13:03:27.904Z,43.70
2019-03-12T13:05:55.869Z,43.90
2019-03-12T13:08:23.674Z,47.50
2019-03-12T13:10:52.882Z,48.10
2019-03-12T13:13:20.748Z,47.70
2019-03-12T13:15:48.361Z,48.50
2019-03-12T13:18:16.750Z,48.60
2019-03-12T13:20:44.552Z,49.00
2019-03-12T13:23:13.945Z,50.00
2019-03-12T13:25:42.084Z,50.60
2019-03-12T13:28:09.846Z,52.20
2019-03-12T13:30:37.412Z,48.40
2019-03-12T13:33:05.131Z,48.60
2019-03-12T13:35:32.693Z,49.20
2019-03-12T13:38:00.781Z,49.40
2019-03-12T13:40:28.569Z,48.90
2019-03-12T13:42:56.513Z,48.70
2019-03-12T13:45:24.409Z,49.20
2019-03-12T13:47:52.085Z,49.60
2019-03-12T13:50:19.599Z,49.40
2019-03-12T13:52:47.171Z,48.90
2019-03-12T13:55:14.975Z,50.00
2019-03-12T13:57:43.009Z,50.40
2019-03-12T14:00:13.811Z,50.00
2019-03-12T14:02:41.458Z,52.20
2019-03-12T14:05:09.049Z,51.70
2019-03-12T14:07:36.705Z,52.10
2019-03-12T14:10:05.716Z,52.10
2019-03-12T14:12:33.337Z,52.40
2019-03-12T14:15:00.852Z,52.30
2019-03-12T14:17:28.402Z,51.60
2019-03-12T14:19:57.729Z,50.90
2019-03-12T14:22:25.254Z,51.40
2019-03-12T14:24:52.815Z,51.70
2019-03-12T14:27:20.628Z,53.40
2019-03-12T14:29:48.273Z,51.90
2019-03-12T14:32:15.849Z,51.70
2019-03-12T14:34:45.911Z,51.50
2019-03-12T14:37:13.582Z,51.80
2019-03-12T14:39:41.941Z,52.30
2019-03-12T14:42:09.529Z,51.50
2019-03-12T14:44:37.087Z,50.40
2019-03-12T14:47:06.204Z,50.20
2019-03-12T14:49:35.329Z,51.00
2019-03-12T14:52:30.847Z,51.70
2019-03-12T14:54:58.716Z,48.10
2019-03-12T14:57:26.191Z,48.30
2019-03-12T14:59:53.705Z,48.40
2019-03-12T15:02:21.245Z,47.10
2019-03-12T15:04:48.787Z,47.50
2019-03-12T15:07:16.275Z,47.70
2019-03-12T15:09:43.832Z,46.60
2019-03-12T15:12:12.032Z,46.80
2019-03-12T15:14:39.741Z,46.70
2019-03-12T15:17:07.701Z,45.70
2019-03-12T15:19:35.260Z,43.90
2019-03-12T15:22:03.113Z,45.30
2019-03-12T15:24:30.654Z,45.90
2019-03-12T15:26:59.020Z,45.50
2019-03-12T15:29:26.680Z,45.80
2019-03-12T15:32:03.669Z,44.20
2019-03-12T15:34:24.122Z,44.50
2019-03-12T15:36:52.337Z,43.30
2019-03-12T15:39:20.179Z,42.40
2019-03-12T15:41:47.665Z,40.00
2019-03-12T15:44:15.143Z,39.30
2019-03-12T15:46:42.676Z,40.80
2019-03-12T15:49:14.789Z,41.40
2019-03-12T15:51:42.299Z,39.70
2019-03-12T15:54:09.890Z,40.30
2019-03-12T15:56:37.464Z,38.00
2019-03-12T15:59:05.009Z,40.70
2019-03-12T16:01:32.574Z,40.10
2019-03-12T16:04:00.080Z,38.60
2019-03-12T16:06:27.865Z,39.10
2019-03-12T16:08:55.420Z,39.20
2019-03-12T16:11:22.952Z,42.10
2019-03-12T16:13:50.460Z,43.10
2019-03-12T16:16:17.980Z,43.00
2019-03-12T16:18:45.495Z,43.90
2019-03-12T16:21:13.037Z,43.90
2019-03-12T16:23:40.511Z,45.50
2019-03-12T16:26:08.056Z,46.00
2019-03-12T16:28:35.858Z,45.90
2019-03-12T16:31:03.344Z,45.20
2019-03-12T16:33:30.832Z,45.60
2019-03-12T16:35:58.354Z,46.80
2019-03-12T16:38:25.929Z,47.30
2019-03-12T16:40:53.696Z,46.50
2019-03-12T16:43:22.303Z,47.80
2019-03-12T16:45:50.296Z,47.30
2019-03-12T16:48:18.089Z,47.80
2019-03-12T16:50:45.559Z,49.50
2019-03-12T16:53:13.058Z,51.20
2019-03-12T16:55:40.543Z,52.80
2019-03-12T16:58:08.071Z,53.70
2019-03-12T17:00:35.593Z,54.10
2019-03-12T17:03:03.056Z,55.40
2019-03-12T17:05:30.535Z,55.70
2019-03-12T17:07:57.999Z,56.10
2019-03-12T17:10:25.551Z,55.80
2019-03-12T17:12:53.090Z,55.80
2019-03-12T17:15:20.531Z,56.20
2019-03-12T17:17:48.022Z,55.60
2019-03-12T17:20:15.735Z,56.90
2019-03-12T17:22:43.548Z,56.50
2019-03-12T17:25:11.494Z,57.40
2019-03-12T17:27:39.318Z,56.80
2019-03-12T17:30:10.296Z,56.80
2019-03-12T17:32:38.079Z,56.50
2019-03-12T17:35:06.787Z,56.70
2019-03-12T17:37:34.318Z,57.00
2019-03-12T17:40:01.793Z,58.20
2019-03-12T17:42:29.669Z,58.30
2019-03-12T17:44:57.215Z,58.00
2019-03-12T17:47:24.688Z,58.90
2019-03-12T17:49:52.186Z,59.30
2019-03-12T17:52:20.305Z,59.90
2019-03-12T17:54:47.836Z,60.40
2019-03-12T17:57:15.590Z,61.20
2019-03-12T17:59:43.159Z,61.10
2019-03-12T18:02:10.760Z,61.80
2019-03-12T18:04:38.304Z,61.90
2019-03-12T18:07:13.418Z,62.90
2019-03-12T18:09:41.450Z,63.80
2019-03-12T18:12:09.954Z,64.50
2019-03-12T18:14:37.647Z,65.30
2019-03-12T18:17:05.673Z,66.70
2019-03-12T18:19:33.262Z,67.30
2019-03-12T18:22:01.891Z,68.40
2019-03-12T18:24:29.925Z,69.20
2019-03-12T18:26:57.601Z,69.80
2019-03-12T18:29:25.492Z,70.30
2019-03-12T18:31:53.012Z,71.20
2019-03-12T18:34:20.590Z,72.00
2019-03-12T18:36:48.647Z,72.40
2019-03-12T18:39:16.457Z,73.10
2019-03-12T18:41:44.055Z,73.10
2019-03-12T18:44:11.681Z,74.20
2019-03-12T18:46:40.700Z,73.70
2019-03-12T18:49:09.216Z,73.70
2019-03-12T18:51:36.843Z,73.60
2019-03-12T18:54:04.743Z,73.20
2019-03-12T18:56:32.617Z,73.50
2019-03-12T18:59:00.398Z,73.50
2019-03-12T19:01:28.639Z,73.90
2019-03-12T19:03:56.320Z,73.70
2019-03-12T19:06:23.985Z,73.50
2019-03-12T19:08:51.629Z,73.50
2019-03-12T19:11:19.269Z,73.80
2019-03-12T19:13:47.823Z,73.80
2019-03-12T19:16:16.012Z,74.20
2019-03-12T19:18:43.584Z,73.60
2019-03-12T19:21:12.147Z,74.50
2019-03-12T19:23:40.126Z,74.10
2019-03-12T19:26:08.755Z,75.50
2019-03-12T19:28:36.399Z,75.20
2019-03-12T19:31:22.743Z,75.00
2019-03-12T19:33:52.753Z,75.50
2019-03-12T19:36:20.887Z,74.80
2019-03-12T19:38:49.171Z,74.70
2019-03-12T19:41:17.728Z,74.70
2019-03-12T19:43:45.334Z,74.70
2019-03-12T19:46:12.935Z,75.00
2019-03-12T19:48:40.520Z,75.20
2019-03-12T19:51:08.198Z,75.40
2019-03-12T19:53:36.186Z,75.10
2019-03-12T19:56:03.823Z,75.50
2019-03-12T19:58:31.422Z,75.10
2019-03-12T20:01:00.223Z,75.80
2019-03-12T20:03:27.964Z,75.20
2019-03-12T20:05:55.453Z,75.40
2019-03-12T20:08:23.520Z,75.50
2019-03-12T20:11:33.243Z,74.60
2019-03-12T20:14:38.337Z,74.60
2019-03-12T20:17:54.183Z,74.10
2019-03-12T20:20:55.232Z,73.80
2019-03-12T20:24:19.935Z,73.20
2019-03-12T20:27:28.204Z,73.20
2019-03-12T20:30:19.028Z,73.20
2019-03-12T20:33:36.067Z,72.60
2019-03-12T20:36:52.795Z,72.20
2019-03-12T20:39:56.921Z,71.70
2019-03-12T20:43:01.034Z,70.90
2019-03-12T20:46:04.783Z,70.70
2019-03-12T20:49:14.271Z,70.20
2019-03-12T20:52:18.269Z,70.00
2019-03-12T20:55:45.870Z,69.50
2019-03-12T20:58:59.149Z,69.50
2019-03-12T21:02:23.122Z,69.20
2019-03-12T21:05:48.122Z,69.30
2019-03-12T21:08:50.338Z,69.10
2019-03-12T21:11:54.760Z,69.80
2019-03-12T21:15:07.005Z,70.40
2019-03-12T21:17:54.551Z,70.30
2019-03-12T21:21:19.040Z,70.50
2019-03-12T21:23:56.157Z,70.90
2019-03-12T21:26:59.258Z,71.10
2019-03-12T21:29:45.020Z,70.50
2019-03-12T21:32:14.652Z,71.10
2019-03-12T21:34:42.189Z,70.10
2019-03-12T21:37:09.913Z,70.00
2019-03-12T21:39:37.466Z,69.30
2019-03-12T21:42:05.833Z,69.40
2019-03-12T21:44:33.543Z,69.00
2019-03-12T21:47:01.281Z,69.30
2019-03-12T21:49:28.795Z,69.50
2019-03-12T21:51:56.357Z,70.10
2019-03-12T21:54:23.902Z,69.80
2019-03-12T21:56:51.827Z,70.00
2019-03-12T21:59:19.675Z,69.90
2019-03-12T22:01:47.205Z,70.20
2019-03-12T22:04:14.807Z,70.20
2019-03-12T22:06:42.367Z,69.80
2019-03-12T22:09:09.929Z,69.40
2019-03-12T22:11:37.741Z,70.00
2019-03-12T22:14:05.356Z,68.60
2019-03-12T22:16:32.881Z,68.30
2019-03-12T22:19:00.395Z,67.60
2019-03-12T22:21:37.797Z,67.10
2019-03-12T22:24:07.102Z,66.50
2019-03-12T22:26:34.967Z,65.90
2019-03-12T22:29:02.541Z,66.20
2019-03-12T22:31:30.067Z,65.60
2019-03-12T22:33:58.820Z,66.20
2019-03-12T22:36:26.433Z,66.30
2019-03-12T22:38:53.891Z,66.30
2019-03-12T22:41:21.456Z,66.70
2019-03-12T22:43:48.976Z,67.10
2019-03-12T22:46:16.658Z,68.20
2019-03-12T22:48:44.202Z,72.30
2019-03-12T22:51:11.733Z,65.00
2019-03-12T22:53:39.274Z,69.20
2019-03-12T22:56:06.804Z,71.80
2019-03-12T22:58:34.363Z,72.60
2019-03-12T23:01:02.210Z,73.80
2019-03-12T23:03:29.738Z,72.80
2019-03-12T23:05:57.302Z,75.00
2019-03-12T23:08:26.270Z,76.10
2019-03-12T23:10:53.916Z,75.50
2019-03-12T23:13:22.035Z,74.80
2019-03-12T23:15:49.580Z,78.90
2019-03-12T23:18:17.081Z,79.20
2019-03-12T23:20:44.696Z,80.50
2019-03-12T23:23:12.241Z,81.90
2019-03-12T23:25:39.779Z,83.70
2019-03-12T23:28:07.395Z,84.60
2019-03-12T23:30:34.895Z,85.60
2019-03-12T23:33:02.651Z,85.80
2019-03-12T23:35:30.180Z,86.50
2019-03-12T23:37:57.754Z,87.20
2019-03-12T23:40:25.301Z,87.20
2019-03-12T23:42:52.822Z,87.50
2019-03-12T23:45:20.393Z,88.10
2019-03-12T23:47:50.310Z,88.60
2019-03-12T23:50:17.838Z,89.30
2019-03-12T23:52:45.576Z,89.90
2019-03-12T23:55:14.047Z,90.00
2019-03-12T23:57:41.583Z,90.20
